Time;durP1;ratioP1;P1;durP2;ratioP2;P2;SDS_P1;SDS_P2;PMS_P1;PMS_P2;Temp;Humidity;BMP_temperature;BMP_pressure;BME280_temperature;BME280_humidity;BME280_pressure;Samples;Min_cycle;Max_cycle;Signal;HPM_P1;HPM_P2
2022/12/23 00:00:39;;;;;;;27.17;12.43;;;;;;;;;;5040203;28;20179;-82
2022/12/23 00:03:04;;;;;;;26.80;11.17;;;;;;;;;;5035347;28;20200;-82
2022/12/23 00:05:29;;;;;;;26.27;11.97;;;;;;;;;;5030044;28;20405;-82
2022/12/23 00:07:55;;;;;;;27.63;11.97;;;;;;;;;;5024601;28;20247;-82
2022/12/23 00:10:20;;;;;;;26.30;11.50;;;;;;;;;;5032264;22;20586;-75
2022/12/23 00:15:39;;;;;;;33.63;13.00;;;;;;;;;;4982540;28;20200;-75
2022/12/23 00:18:04;;;;;;;25.87;12.37;;;;;;;;;;5023084;28;20178;-75
2022/12/23 00:20:30;;;;;;;34.03;12.53;;;;;;;;;;5029681;28;20664;-75
2022/12/23 00:23:04;;;;;;;23.87;11.73;;;;;;;;;;5033726;28;20202;-75
2022/12/23 00:25:44;;;;;;;27.47;12.37;;;;;;;;;;5032079;28;20175;-75
2022/12/23 00:28:13;;;;;;;29.83;14.03;;;;;;;;;;5031230;28;20189;-75
2022/12/23 00:30:45;;;;;;;29.57;13.03;;;;;;;;;;5032122;28;20576;-75
2022/12/23 00:33:10;;;;;;;30.33;12.90;;;;;;;;;;5034403;28;20181;-75
2022/12/23 00:35:35;;;;;;;25.63;12.80;;;;;;;;;;5030097;28;20194;-74
2022/12/23 00:38:00;;;;;;;20.77;13.30;;;;;;;;;;5033835;28;20265;-75
2022/12/23 00:43:10;;;;;;;24.77;12.83;;;;;;;;;;5034108;28;20284;-75
2022/12/23 00:45:35;;;;;;;23.83;11.63;;;;;;;;;;5027334;28;20222;-75
2022/12/23 00:50:44;;;;;;;25.83;12.83;;;;;;;;;;5033913;28;20193;-75
2022/12/23 00:53:09;;;;;;;22.23;12.70;;;;;;;;;;5032930;28;20178;-75
2022/12/23 00:55:34;;;;;;;22.20;12.40;;;;;;;;;;5028369;28;20178;-75
2022/12/23 00:58:00;;;;;;;20.63;11.77;;;;;;;;;;5035213;28;20193;-75
2022/12/23 01:05:56;;;;;;;24.63;12.43;;;;;;;;;;5028754;28;20216;-75
2022/12/23 01:08:21;;;;;;;19.53;12.60;;;;;;;;;;5034335;28;20563;-74
2022/12/23 01:10:46;;;;;;;27.40;13.97;;;;;;;;;;5027945;28;20206;-75
2022/12/23 01:13:11;;;;;;;26.17;12.73;;;;;;;;;;5033333;28;20187;-75
2022/12/23 01:15:37;;;;;;;34.77;13.47;;;;;;;;;;5032931;28;20200;-75
2022/12/23 01:18:02;;;;;;;31.37;14.47;;;;;;;;;;5034263;28;20237;-74
2022/12/23 01:20:27;;;;;;;32.17;13.73;;;;;;;;;;5032481;28;20202;-75
2022/12/23 01:22:52;;;;;;;30.97;15.47;;;;;;;;;;5033379;28;20209;-74
2022/12/23 01:25:17;;;;;;;29.90;12.93;;;;;;;;;;5033441;28;20186;-75
2022/12/23 01:27:43;;;;;;;26.77;12.77;;;;;;;;;;5029603;28;20209;-75
2022/12/23 01:30:08;;;;;;;29.10;13.20;;;;;;;;;;5032764;28;20229;-75
2022/12/23 01:32:33;;;;;;;26.03;13.87;;;;;;;;;;5031665;28;20674;-75
2022/12/23 01:34:58;;;;;;;28.07;12.80;;;;;;;;;;5033283;28;20308;-75
2022/12/23 01:37:24;;;;;;;25.10;12.63;;;;;;;;;;5032772;28;20308;-75
2022/12/23 01:39:49;;;;;;;24.13;12.73;;;;;;;;;;5031217;28;20194;-75
2022/12/23 01:45:00;;;;;;;24.57;12.73;;;;;;;;;;5020557;28;20185;-75
2022/12/23 01:47:39;;;;;;;27.50;12.83;;;;;;;;;;5032693;28;20174;-76
2022/12/23 01:50:04;;;;;;;28.63;14.37;;;;;;;;;;5033040;28;20671;-75
2022/12/23 01:52:30;;;;;;;22.13;11.97;;;;;;;;;;5030629;28;20263;-75
2022/12/23 01:54:55;;;;;;;31.83;14.63;;;;;;;;;;5031286;28;20213;-75
2022/12/23 01:57:21;;;;;;;27.07;13.33;;;;;;;;;;5032984;28;20219;-75
2022/12/23 02:05:15;;;;;;;25.23;13.00;;;;;;;;;;5031312;28;20181;-75
2022/12/23 02:10:28;;;;;;;28.20;12.57;;;;;;;;;;5025872;28;20983;-75
2022/12/23 02:13:04;;;;;;;36.03;14.20;;;;;;;;;;5027057;28;20179;-74
2022/12/23 02:18:25;;;;;;;22.53;12.00;;;;;;;;;;5031288;28;20718;-75
2022/12/23 02:20:59;;;;;;;21.27;11.43;;;;;;;;;;5030583;28;20178;-75
2022/12/23 02:23:24;;;;;;;25.17;12.37;;;;;;;;;;5032004;28;20189;-75
2022/12/23 02:26:06;;;;;;;21.50;11.60;;;;;;;;;;5032403;28;20166;-74
2022/12/23 02:28:50;;;;;;;19.20;9.17;;;;;;;;;;5026679;28;20595;-75
2022/12/23 02:31:15;;;;;;;18.47;8.20;;;;;;;;;;5031538;28;20658;-75
2022/12/23 02:33:53;;;;;;;11.80;7.13;;;;;;;;;;5031008;28;20261;-75
2022/12/23 02:36:42;;;;;;;11.80;6.97;;;;;;;;;;5032344;28;20193;-74
2022/12/23 02:39:19;;;;;;;12.73;6.30;;;;;;;;;;5031743;28;20198;-75
2022/12/23 02:41:52;;;;;;;11.33;5.67;;;;;;;;;;5021680;28;20284;-75
2022/12/23 02:44:17;;;;;;;17.67;7.93;;;;;;;;;;5035130;28;20182;-75
2022/12/23 02:46:43;;;;;;;11.53;6.73;;;;;;;;;;5031227;28;20177;-75
2022/12/23 02:49:10;;;;;;;14.63;8.37;;;;;;;;;;5029190;28;20245;-75
2022/12/23 02:51:42;;;;;;;15.17;9.00;;;;;;;;;;5030699;28;20248;-75
2022/12/23 02:54:10;;;;;;;18.00;8.90;;;;;;;;;;5036237;28;20265;-75
2022/12/23 02:56:38;;;;;;;15.53;8.80;;;;;;;;;;5020510;28;20186;-75
2022/12/23 02:59:03;;;;;;;17.93;9.70;;;;;;;;;;5033824;28;20680;-75
2022/12/23 03:01:30;;;;;;;16.73;8.73;;;;;;;;;;5032093;28;20205;-75
2022/12/23 03:03:55;;;;;;;19.00;9.20;;;;;;;;;;5030818;28;20659;-75
2022/12/23 03:06:23;;;;;;;20.83;8.57;;;;;;;;;;5032064;28;20277;-75
2022/12/23 03:08:49;;;;;;;15.07;8.77;;;;;;;;;;5032072;28;20301;-75
2022/12/23 03:11:15;;;;;;;15.67;8.53;;;;;;;;;;5029709;28;20190;-75
2022/12/23 03:13:43;;;;;;;16.47;8.87;;;;;;;;;;5025350;28;20178;-75
2022/12/23 03:16:15;;;;;;;14.73;8.90;;;;;;;;;;5030568;28;20209;-75
2022/12/23 03:18:46;;;;;;;16.50;9.40;;;;;;;;;;5031888;28;20582;-75
2022/12/23 03:21:18;;;;;;;11.67;8.13;;;;;;;;;;5017875;28;20225;-75
2022/12/23 03:23:48;;;;;;;18.33;10.10;;;;;;;;;;5031265;28;20198;-75
2022/12/23 03:26:17;;;;;;;14.83;9.40;;;;;;;;;;5031622;28;20197;-75
2022/12/23 03:28:47;;;;;;;17.63;10.40;;;;;;;;;;5023518;28;20555;-74
2022/12/23 03:31:14;;;;;;;16.47;10.43;;;;;;;;;;5031771;28;20217;-74
2022/12/23 03:33:41;;;;;;;15.90;9.23;;;;;;;;;;5032251;28;20170;-75
2022/12/23 03:36:10;;;;;;;16.43;10.07;;;;;;;;;;5032292;28;20170;-75
2022/12/23 03:38:37;;;;;;;16.43;9.70;;;;;;;;;;5031443;28;20174;-75
2022/12/23 03:41:05;;;;;;;16.73;10.70;;;;;;;;;;5031691;28;20610;-75
2022/12/23 03:43:42;;;;;;;20.20;11.47;;;;;;;;;;5029865;28;20173;-74
2022/12/23 03:46:14;;;;;;;26.73;12.90;;;;;;;;;;5028454;28;20209;-75
2022/12/23 03:48:41;;;;;;;24.53;12.73;;;;;;;;;;5035533;28;20515;-74
2022/12/23 03:51:17;;;;;;;21.20;12.57;;;;;;;;;;5030967;28;20178;-75
2022/12/23 03:53:49;;;;;;;20.60;11.60;;;;;;;;;;5028511;28;20190;-75
2022/12/23 03:56:19;;;;;;;19.10;11.90;;;;;;;;;;5032508;28;20190;-74
2022/12/23 03:58:51;;;;;;;17.27;11.87;;;;;;;;;;5031079;28;20293;-74
2022/12/23 04:01:23;;;;;;;21.63;12.57;;;;;;;;;;5034951;28;20201;-74
2022/12/23 04:03:57;;;;;;;19.53;11.77;;;;;;;;;;5032904;28;20268;-74
2022/12/23 04:06:23;;;;;;;21.57;12.30;;;;;;;;;;5036310;28;20200;-74
2022/12/23 04:08:48;;;;;;;20.37;13.07;;;;;;;;;;5034388;28;20198;-74
2022/12/23 04:11:13;;;;;;;21.90;12.93;;;;;;;;;;5033175;28;20181;-74
2022/12/23 04:13:39;;;;;;;19.37;12.20;;;;;;;;;;5035851;28;20253;-74
2022/12/23 04:16:04;;;;;;;20.00;11.67;;;;;;;;;;5034185;28;20198;-74
2022/12/23 04:18:29;;;;;;;18.83;10.57;;;;;;;;;;5034754;28;20193;-74
2022/12/23 04:20:54;;;;;;;18.73;10.57;;;;;;;;;;5033494;28;20202;-74
2022/12/23 04:23:20;;;;;;;18.37;11.47;;;;;;;;;;5034639;28;20248;-74
2022/12/23 04:25:45;;;;;;;16.70;10.50;;;;;;;;;;5033638;28;20223;-74
2022/12/23 04:28:10;;;;;;;19.20;11.80;;;;;;;;;;5034819;28;20220;-74
2022/12/23 04:30:35;;;;;;;18.33;11.30;;;;;;;;;;5034354;28;20217;-74
2022/12/23 04:33:01;;;;;;;19.83;11.60;;;;;;;;;;5033269;28;20261;-73
2022/12/23 04:35:26;;;;;;;17.27;11.77;;;;;;;;;;5033322;28;20178;-74
2022/12/23 04:37:51;;;;;;;18.00;11.13;;;;;;;;;;5034119;28;20194;-74
2022/12/23 04:40:16;;;;;;;17.63;10.30;;;;;;;;;;5034418;28;20194;-74
2022/12/23 04:42:42;;;;;;;16.53;10.67;;;;;;;;;;5034484;28;20272;-74
2022/12/23 04:45:07;;;;;;;20.93;10.97;;;;;;;;;;5034366;28;20174;-74
2022/12/23 04:47:32;;;;;;;18.10;11.50;;;;;;;;;;5035109;28;20713;-74
2022/12/23 04:49:57;;;;;;;17.13;11.00;;;;;;;;;;5033986;28;20182;-74
2022/12/23 04:52:23;;;;;;;16.03;10.70;;;;;;;;;;5033810;28;20187;-74
2022/12/23 04:54:48;;;;;;;17.47;10.03;;;;;;;;;;5034229;28;20205;-74
2022/12/23 04:57:14;;;;;;;16.80;10.70;;;;;;;;;;5034201;28;20185;-74
2022/12/23 04:59:39;;;;;;;23.50;12.07;;;;;;;;;;5034608;28;20190;-74
2022/12/23 05:02:04;;;;;;;15.90;10.47;;;;;;;;;;5033244;28;20202;-74
2022/12/23 05:04:29;;;;;;;17.17;10.33;;;;;;;;;;5034200;28;20170;-74
2022/12/23 05:06:55;;;;;;;17.10;9.83;;;;;;;;;;5034509;28;20250;-74
2022/12/23 05:09:20;;;;;;;17.00;9.77;;;;;;;;;;5034077;28;20231;-74
2022/12/23 05:11:45;;;;;;;18.00;10.77;;;;;;;;;;5031148;28;20553;-73
2022/12/23 05:14:11;;;;;;;18.87;11.43;;;;;;;;;;5032773;28;20518;-74
2022/12/23 05:16:36;;;;;;;18.53;10.70;;;;;;;;;;5034102;28;20265;-76
2022/12/23 05:19:01;;;;;;;19.27;11.63;;;;;;;;;;5033804;28;20202;-76
2022/12/23 05:21:26;;;;;;;17.30;10.23;;;;;;;;;;5027361;28;20193;-74
2022/12/23 05:23:52;;;;;;;18.27;10.97;;;;;;;;;;5031615;28;20171;-74
2022/12/23 05:26:17;;;;;;;18.90;11.37;;;;;;;;;;5034149;28;20174;-75
2022/12/23 05:28:44;;;;;;;16.47;11.57;;;;;;;;;;5033343;28;20198;-75
2022/12/23 05:31:10;;;;;;;17.67;11.70;;;;;;;;;;5033206;28;20220;-74
2022/12/23 05:33:35;;;;;;;18.33;11.37;;;;;;;;;;5032094;28;20178;-74
2022/12/23 05:36:00;;;;;;;16.10;11.07;;;;;;;;;;5033842;28;20170;-75
2022/12/23 05:38:26;;;;;;;15.70;9.93;;;;;;;;;;5033990;28;20648;-74
2022/12/23 05:40:51;;;;;;;15.03;11.00;;;;;;;;;;5033029;28;20178;-75
2022/12/23 05:43:17;;;;;;;17.03;9.57;;;;;;;;;;5033234;28;20581;-74
2022/12/23 05:45:42;;;;;;;16.50;10.27;;;;;;;;;;5033019;28;20174;-75
2022/12/23 05:48:07;;;;;;;19.70;10.67;;;;;;;;;;5032857;28;20178;-74
2022/12/23 05:50:33;;;;;;;15.07;10.27;;;;;;;;;;5031628;28;20198;-74
2022/12/23 05:52:58;;;;;;;17.63;10.53;;;;;;;;;;5032169;28;20179;-74
2022/12/23 05:55:24;;;;;;;17.07;9.87;;;;;;;;;;5032217;28;20175;-74
2022/12/23 05:57:49;;;;;;;15.27;9.90;;;;;;;;;;5033348;28;20167;-75
2022/12/23 06:00:15;;;;;;;14.67;9.03;;;;;;;;;;5025167;28;20212;-75
2022/12/23 06:02:40;;;;;;;13.23;9.83;;;;;;;;;;5030363;28;20247;-74
2022/12/23 06:05:05;;;;;;;13.27;9.23;;;;;;;;;;5027542;28;20182;-75
2022/12/23 06:07:31;;;;;;;14.50;10.63;;;;;;;;;;5033409;28;20180;-74
2022/12/23 06:09:56;;;;;;;17.90;9.17;;;;;;;;;;5031159;28;20202;-74
2022/12/23 06:12:21;;;;;;;13.00;8.80;;;;;;;;;;5031620;28;20186;-75
2022/12/23 06:14:46;;;;;;;17.33;9.17;;;;;;;;;;5030771;28;20240;-73
2022/12/23 06:17:11;;;;;;;17.03;10.10;;;;;;;;;;5026013;28;20182;-75
2022/12/23 06:19:37;;;;;;;17.13;10.50;;;;;;;;;;5031626;28;20574;-74
2022/12/23 06:22:02;;;;;;;15.60;9.53;;;;;;;;;;5032019;28;20192;-75
2022/12/23 06:24:27;;;;;;;15.43;9.50;;;;;;;;;;5031979;28;20181;-74
2022/12/23 06:26:52;;;;;;;17.70;10.33;;;;;;;;;;5032593;28;20257;-74
2022/12/23 06:29:18;;;;;;;15.17;10.03;;;;;;;;;;5028523;28;20194;-74
2022/12/23 06:31:43;;;;;;;14.70;9.27;;;;;;;;;;5031015;28;20669;-75
2022/12/23 06:34:08;;;;;;;15.67;9.97;;;;;;;;;;5032269;28;20674;-74
2022/12/23 06:36:33;;;;;;;13.87;8.93;;;;;;;;;;5032526;28;20751;-75
2022/12/23 06:38:59;;;;;;;16.73;9.90;;;;;;;;;;5032447;28;20193;-74
2022/12/23 06:41:24;;;;;;;17.53;10.03;;;;;;;;;;5028260;28;20170;-74
2022/12/23 06:43:49;;;;;;;16.33;9.60;;;;;;;;;;5029632;28;20550;-75
2022/12/23 06:46:14;;;;;;;16.27;10.93;;;;;;;;;;5032831;28;20284;-74
2022/12/23 06:48:39;;;;;;;17.43;10.80;;;;;;;;;;5032091;28;20179;-75
2022/12/23 06:51:05;;;;;;;16.27;10.07;;;;;;;;;;5029120;28;20551;-74
2022/12/23 06:53:30;;;;;;;16.50;10.80;;;;;;;;;;5031269;28;20182;-74
2022/12/23 06:56:02;;;;;;;18.07;10.80;;;;;;;;;;5031937;28;20549;-74
2022/12/23 06:58:30;;;;;;;16.47;11.83;;;;;;;;;;5029521;28;20383;-75
2022/12/23 07:00:55;;;;;;;22.50;11.93;;;;;;;;;;5017036;28;20189;-75
2022/12/23 07:03:21;;;;;;;20.50;12.40;;;;;;;;;;5022919;28;20206;-75
2022/12/23 07:05:49;;;;;;;21.20;11.23;;;;;;;;;;5031857;28;20201;-75
2022/12/23 07:08:15;;;;;;;23.47;13.20;;;;;;;;;;5034473;28;20181;-74
2022/12/23 07:10:40;;;;;;;18.33;11.30;;;;;;;;;;5034316;28;20217;-74
2022/12/23 07:13:05;;;;;;;20.23;11.93;;;;;;;;;;5020807;28;20197;-74
2022/12/23 07:15:30;;;;;;;18.73;11.27;;;;;;;;;;5029137;28;20182;-74
2022/12/23 07:17:56;;;;;;;18.40;12.17;;;;;;;;;;5021831;28;20183;-75
2022/12/23 07:20:21;;;;;;;20.40;12.63;;;;;;;;;;5032613;28;20593;-75
2022/12/23 07:22:46;;;;;;;20.83;12.47;;;;;;;;;;5031052;28;20620;-75
2022/12/23 07:25:12;;;;;;;19.53;12.23;;;;;;;;;;5032099;28;20182;-74
2022/12/23 07:27:37;;;;;;;19.40;11.57;;;;;;;;;;5030698;28;20192;-75
2022/12/23 07:30:03;;;;;;;19.50;11.67;;;;;;;;;;5032741;28;20209;-74
2022/12/23 07:32:28;;;;;;;23.67;12.57;;;;;;;;;;5035435;28;20200;-75
2022/12/23 07:34:53;;;;;;;19.73;12.07;;;;;;;;;;5035155;28;20690;-75
2022/12/23 07:37:18;;;;;;;25.50;12.80;;;;;;;;;;5038181;28;20203;-75
2022/12/23 07:39:43;;;;;;;26.07;14.13;;;;;;;;;;5035489;28;20198;-74
2022/12/23 07:42:09;;;;;;;20.23;12.23;;;;;;;;;;5035434;28;20615;-74
2022/12/23 07:44:34;;;;;;;22.73;12.90;;;;;;;;;;5035031;28;20598;-75
2022/12/23 07:47:00;;;;;;;32.30;14.13;;;;;;;;;;5028787;28;20227;-75
2022/12/23 07:49:25;;;;;;;26.93;13.00;;;;;;;;;;5033488;28;20202;-74
2022/12/23 07:51:50;;;;;;;27.50;15.03;;;;;;;;;;5034523;28;20175;-74
2022/12/23 07:54:15;;;;;;;29.37;14.40;;;;;;;;;;5032116;28;20185;-74
2022/12/23 07:56:41;;;;;;;33.40;14.77;;;;;;;;;;5033598;28;20197;-74
2022/12/23 07:59:06;;;;;;;29.87;15.13;;;;;;;;;;5038528;28;20202;-75
2022/12/23 08:01:31;;;;;;;33.80;16.00;;;;;;;;;;5020150;28;20209;-75
2022/12/23 08:03:56;;;;;;;28.33;14.27;;;;;;;;;;5033588;28;20174;-75
2022/12/23 08:06:21;;;;;;;26.93;13.37;;;;;;;;;;5033752;28;20186;-74
2022/12/23 08:08:46;;;;;;;27.50;14.13;;;;;;;;;;5034795;28;20263;-75
2022/12/23 08:11:12;;;;;;;35.93;14.83;;;;;;;;;;5031533;28;20265;-75
2022/12/23 08:13:39;;;;;;;31.87;16.03;;;;;;;;;;5032300;28;20186;-76
2022/12/23 08:16:05;;;;;;;32.90;15.67;;;;;;;;;;5032648;28;20632;-75
2022/12/23 08:18:31;;;;;;;33.17;14.07;;;;;;;;;;5032809;28;20228;-75
2022/12/23 08:20:57;;;;;;;31.33;13.67;;;;;;;;;;5031827;28;20536;-75
2022/12/23 08:23:23;;;;;;;31.80;14.17;;;;;;;;;;5033482;28;20312;-75
2022/12/23 08:25:56;;;;;;;37.00;14.27;;;;;;;;;;5034566;28;20178;-75
2022/12/23 08:28:21;;;;;;;34.20;14.67;;;;;;;;;;5046305;28;20217;-75
2022/12/23 08:30:46;;;;;;;36.43;15.50;;;;;;;;;;5032642;28;20296;-75
2022/12/23 08:33:12;;;;;;;35.70;13.83;;;;;;;;;;5031554;28;20589;-74
2022/12/23 08:35:37;;;;;;;31.43;12.23;;;;;;;;;;5029574;28;20221;-74
2022/12/23 08:38:02;;;;;;;34.63;13.83;;;;;;;;;;5034125;28;20186;-74
2022/12/23 08:40:27;;;;;;;33.07;13.37;;;;;;;;;;5034631;28;20194;-74
2022/12/23 08:42:52;;;;;;;37.13;14.00;;;;;;;;;;5029551;28;20205;-76
2022/12/23 08:45:18;;;;;;;34.53;12.83;;;;;;;;;;5033677;28;20261;-76
2022/12/23 08:47:43;;;;;;;30.97;12.53;;;;;;;;;;5032945;28;20183;-74
2022/12/23 08:50:10;;;;;;;34.03;12.30;;;;;;;;;;5034224;28;20220;-75
2022/12/23 08:52:36;;;;;;;31.60;13.30;;;;;;;;;;5032156;28;20182;-75
2022/12/23 08:55:01;;;;;;;27.30;12.30;;;;;;;;;;5028053;28;20278;-75
2022/12/23 08:57:26;;;;;;;25.87;11.17;;;;;;;;;;5033744;28;20178;-75
2022/12/23 08:59:51;;;;;;;25.13;11.53;;;;;;;;;;5033213;28;20212;-75
2022/12/23 09:02:16;;;;;;;22.70;10.10;;;;;;;;;;5032915;28;20248;-75
2022/12/23 09:04:42;;;;;;;22.53;9.47;;;;;;;;;;5032753;28;20178;-75
2022/12/23 09:07:07;;;;;;;20.87;9.47;;;;;;;;;;5034205;28;20636;-75
2022/12/23 09:09:32;;;;;;;17.83;9.57;;;;;;;;;;5034214;28;20205;-75
2022/12/23 09:11:57;;;;;;;21.37;9.57;;;;;;;;;;5033396;28;20173;-75
2022/12/23 09:14:23;;;;;;;19.60;9.07;;;;;;;;;;5033412;28;20604;-74
2022/12/23 09:16:51;;;;;;;21.60;9.60;;;;;;;;;;5028432;28;20183;-75
2022/12/23 09:19:16;;;;;;;20.20;10.53;;;;;;;;;;5032995;28;20209;-75
2022/12/23 09:21:42;;;;;;;15.57;9.73;;;;;;;;;;5032847;28;21016;-75
2022/12/23 09:24:07;;;;;;;16.80;9.60;;;;;;;;;;5032899;28;20185;-75
2022/12/23 09:26:32;;;;;;;18.43;9.30;;;;;;;;;;5037543;28;20184;-76
2022/12/23 09:28:57;;;;;;;20.30;10.87;;;;;;;;;;5036652;28;20556;-75
2022/12/23 09:31:23;;;;;;;20.10;9.27;;;;;;;;;;5033586;28;20261;-74
2022/12/23 09:33:49;;;;;;;19.70;8.83;;;;;;;;;;5033602;28;20183;-74
2022/12/23 09:36:14;;;;;;;18.87;9.33;;;;;;;;;;5031645;28;20182;-74
2022/12/23 09:38:40;;;;;;;25.67;10.67;;;;;;;;;;5032058;28;20554;-74
2022/12/23 09:41:08;;;;;;;20.10;9.97;;;;;;;;;;5032426;28;20248;-74
2022/12/23 09:43:58;;;;;;;24.33;11.23;;;;;;;;;;5031536;28;20224;-74
2022/12/23 09:46:25;;;;;;;25.13;11.13;;;;;;;;;;5033014;28;20178;-74
2022/12/23 09:49:00;;;;;;;24.73;10.53;;;;;;;;;;5031004;28;20224;-74
2022/12/23 09:51:26;;;;;;;25.27;13.10;;;;;;;;;;5025257;28;20202;-74
2022/12/23 09:53:55;;;;;;;21.17;10.30;;;;;;;;;;5031973;28;20170;-74
2022/12/23 09:56:26;;;;;;;26.10;13.27;;;;;;;;;;5033093;28;20185;-74
2022/12/23 09:59:00;;;;;;;27.50;11.70;;;;;;;;;;5032300;28;20194;-74
2022/12/23 10:01:31;;;;;;;35.07;12.87;;;;;;;;;;5032136;28;20616;-74
2022/12/23 10:04:19;;;;;;;27.97;13.90;;;;;;;;;;5032444;28;20524;-74
2022/12/23 10:06:46;;;;;;;29.53;13.57;;;;;;;;;;5025506;28;20179;-74
2022/12/23 10:09:12;;;;;;;32.70;15.30;;;;;;;;;;5031772;28;20222;-74
2022/12/23 10:11:40;;;;;;;32.83;14.67;;;;;;;;;;5032103;28;20186;-74
2022/12/23 10:14:08;;;;;;;37.43;18.97;;;;;;;;;;5032734;28;20268;-74
2022/12/23 10:16:38;;;;;;;36.08;16.20;;;;;;;;;;5032853;28;20185;-74
2022/12/23 10:19:22;;;;;;;39.53;16.40;;;;;;;;;;5034026;28;20556;-74
2022/12/23 10:21:53;;;;;;;35.33;15.53;;;;;;;;;;5024604;28;20223;-74
2022/12/23 10:24:22;;;;;;;36.57;17.50;;;;;;;;;;5032106;28;20261;-74
2022/12/23 10:26:47;;;;;;;41.60;18.30;;;;;;;;;;5031771;28;20640;-74
2022/12/23 10:29:17;;;;;;;43.63;17.80;;;;;;;;;;5030934;28;20201;-74
2022/12/23 10:32:08;;;;;;;37.37;17.33;;;;;;;;;;5031806;28;20174;-74
2022/12/23 10:34:33;;;;;;;39.97;19.60;;;;;;;;;;4999027;28;20182;-74
2022/12/23 10:37:06;;;;;;;38.87;17.73;;;;;;;;;;5032572;28;20605;-74
2022/12/23 10:39:38;;;;;;;33.78;17.52;;;;;;;;;;5014378;28;20208;-74
2022/12/23 10:42:15;;;;;;;27.13;16.23;;;;;;;;;;5028630;28;20237;-74
2022/12/23 10:44:50;;;;;;;31.40;15.57;;;;;;;;;;5034817;28;20181;-74
2022/12/23 10:47:22;;;;;;;29.00;16.53;;;;;;;;;;5029037;28;20730;-74
2022/12/23 10:49:47;;;;;;;32.35;17.52;;;;;;;;;;5024292;28;20245;-74
2022/12/23 10:52:24;;;;;;;31.67;15.87;;;;;;;;;;5030798;28;20182;-74
2022/12/23 10:54:50;;;;;;;33.33;17.13;;;;;;;;;;5031289;28;20181;-74
2022/12/23 10:57:17;;;;;;;31.93;17.77;;;;;;;;;;5020599;28;20190;-74
2022/12/23 10:59:42;;;;;;;31.10;17.40;;;;;;;;;;5027182;28;20214;-74
2022/12/23 11:02:10;;;;;;;36.40;17.73;;;;;;;;;;5030398;28;20276;-74
2022/12/23 11:04:37;;;;;;;34.73;19.30;;;;;;;;;;5024859;28;20167;-75
2022/12/23 11:07:03;;;;;;;33.27;19.00;;;;;;;;;;5031939;28;20178;-76
2022/12/23 11:09:38;;;;;;;34.43;18.90;;;;;;;;;;5036614;28;20575;-76
2022/12/23 11:12:05;;;;;;;42.10;19.60;;;;;;;;;;5027436;28;20209;-74
2022/12/23 11:14:40;;;;;;;39.83;19.60;;;;;;;;;;5028620;28;20186;-75
2022/12/23 11:17:17;;;;;;;42.63;21.30;;;;;;;;;;5033117;28;20294;-75
2022/12/23 11:19:42;;;;;;;42.07;21.23;;;;;;;;;;5026660;28;20190;-75
2022/12/23 11:22:19;;;;;;;44.20;20.90;;;;;;;;;;5026350;28;20217;-75
2022/12/23 11:24:44;;;;;;;44.40;22.20;;;;;;;;;;5027166;28;20598;-75
2022/12/23 11:27:11;;;;;;;44.20;22.57;;;;;;;;;;5026835;28;20171;-77
2022/12/23 11:29:38;;;;;;;45.43;22.00;;;;;;;;;;5030263;28;20198;-75
2022/12/23 11:32:14;;;;;;;43.80;21.20;;;;;;;;;;5027498;28;20265;-75
2022/12/23 11:34:43;;;;;;;42.73;22.50;;;;;;;;;;5027866;28;20392;-76
2022/12/23 11:37:21;;;;;;;42.87;23.10;;;;;;;;;;5029823;28;20691;-75
2022/12/23 11:39:46;;;;;;;47.70;24.30;;;;;;;;;;5026159;28;20202;-76
2022/12/23 11:42:16;;;;;;;43.80;22.97;;;;;;;;;;5036594;28;20299;-75
2022/12/23 11:44:43;;;;;;;44.20;22.90;;;;;;;;;;5030109;28;20265;-76
2022/12/23 11:47:21;;;;;;;43.23;22.93;;;;;;;;;;5030249;28;20178;-76
2022/12/23 11:49:48;;;;;;;44.57;21.33;;;;;;;;;;5030650;28;20194;-76
2022/12/23 11:52:15;;;;;;;43.00;21.13;;;;;;;;;;5030918;28;20651;-75
2022/12/23 11:54:47;;;;;;;39.00;20.67;;;;;;;;;;5027505;28;20178;-76
2022/12/23 11:57:17;;;;;;;40.90;21.53;;;;;;;;;;5030805;28;20189;-75
2022/12/23 11:59:47;;;;;;;37.83;19.70;;;;;;;;;;5030994;28;20202;-75
2022/12/23 12:02:20;;;;;;;39.47;20.30;;;;;;;;;;5030606;28;20195;-75
2022/12/23 12:04:51;;;;;;;37.37;19.83;;;;;;;;;;5030856;28;20206;-75
2022/12/23 12:07:18;;;;;;;37.17;20.23;;;;;;;;;;5028934;28;20206;-75
2022/12/23 12:09:44;;;;;;;37.13;19.20;;;;;;;;;;5036208;22;20230;-83
2022/12/23 12:12:15;;;;;;;35.90;19.23;;;;;;;;;;5025337;28;20264;-83
2022/12/23 12:14:42;;;;;;;36.10;18.43;;;;;;;;;;5032714;28;20200;-83
2022/12/23 12:17:20;;;;;;;36.23;19.23;;;;;;;;;;5029628;28;20324;-83
2022/12/23 12:19:52;;;;;;;38.43;19.10;;;;;;;;;;5032975;28;20205;-83
2022/12/23 12:22:25;;;;;;;33.97;18.20;;;;;;;;;;5035081;28;20237;-83
2022/12/23 12:24:52;;;;;;;37.40;19.67;;;;;;;;;;5037134;28;20210;-83
2022/12/23 12:27:18;;;;;;;33.10;16.73;;;;;;;;;;5036581;28;20186;-83
2022/12/23 12:29:44;;;;;;;28.47;16.27;;;;;;;;;;5037106;28;20209;-82
2022/12/23 12:32:19;;;;;;;42.00;17.97;;;;;;;;;;5040605;28;20182;-81
2022/12/23 12:34:47;;;;;;;33.10;17.10;;;;;;;;;;5037616;28;20650;-82
2022/12/23 12:37:22;;;;;;;34.03;16.43;;;;;;;;;;5039793;28;20197;-83
2022/12/23 12:39:51;;;;;;;30.87;16.43;;;;;;;;;;5051679;28;20193;-82
2022/12/23 12:42:23;;;;;;;31.23;16.23;;;;;;;;;;5040120;28;20198;-82
2022/12/23 12:44:57;;;;;;;27.33;14.47;;;;;;;;;;5039252;28;20261;-81
2022/12/23 12:47:27;;;;;;;24.47;14.33;;;;;;;;;;5043478;28;20205;-82
2022/12/23 12:49:56;;;;;;;23.33;12.93;;;;;;;;;;5047727;28;20194;-82
2022/12/23 12:52:23;;;;;;;22.13;12.77;;;;;;;;;;5044329;28;20170;-81
2022/12/23 12:54:57;;;;;;;23.63;12.38;;;;;;;;;;5047781;28;20643;-81
2022/12/23 12:57:23;;;;;;;20.97;13.03;;;;;;;;;;5041086;28;20170;-83
2022/12/23 12:59:49;;;;;;;23.50;12.77;;;;;;;;;;5043750;28;20669;-83
2022/12/23 13:02:34;;;;;;;18.80;11.67;;;;;;;;;;5040463;28;20241;-83
2022/12/23 13:05:35;;;;;;;20.30;12.33;;;;;;;;;;5040238;28;20621;-83
2022/12/23 13:08:09;;;;;;;19.03;10.93;;;;;;;;;;4966240;28;20190;-83
2022/12/23 13:10:40;;;;;;;17.90;11.50;;;;;;;;;;5026978;28;20222;-83
2022/12/23 13:13:15;;;;;;;21.50;11.20;;;;;;;;;;5044730;28;20648;-84
2022/12/23 13:15:48;;;;;;;21.67;12.00;;;;;;;;;;5043956;28;20655;-83
2022/12/23 13:18:31;;;;;;;20.07;10.93;;;;;;;;;;5044507;28;20671;-83
2022/12/23 13:20:59;;;;;;;18.73;12.13;;;;;;;;;;5044242;28;20271;-83
2022/12/23 13:23:30;;;;;;;21.73;11.73;;;;;;;;;;5042130;28;20680;-83
2022/12/23 13:25:59;;;;;;;17.43;10.53;;;;;;;;;;5045483;28;20167;-83
2022/12/23 13:28:31;;;;;;;18.33;11.43;;;;;;;;;;5039453;28;20178;-82
2022/12/23 13:31:16;;;;;;;20.20;12.60;;;;;;;;;;5038487;28;20664;-83
2022/12/23 13:33:51;;;;;;;21.13;11.73;;;;;;;;;;5039656;28;20186;-83
2022/12/23 13:36:26;;;;;;;22.33;12.00;;;;;;;;;;5039362;28;20595;-83
2022/12/23 13:38:59;;;;;;;24.40;11.80;;;;;;;;;;5045627;28;20241;-83
2022/12/23 13:41:38;;;;;;;25.70;13.30;;;;;;;;;;5040956;28;20213;-83
2022/12/23 13:44:04;;;;;;;21.03;11.83;;;;;;;;;;5039402;28;20194;-83
2022/12/23 13:46:32;;;;;;;21.27;12.63;;;;;;;;;;5028632;28;20215;-82
2022/12/23 13:49:07;;;;;;;22.73;12.37;;;;;;;;;;5039769;28;20189;-81
2022/12/23 13:51:36;;;;;;;20.60;11.63;;;;;;;;;;5036926;28;20178;-82
2022/12/23 13:54:18;;;;;;;22.17;11.90;;;;;;;;;;5040561;28;20182;-83
2022/12/23 13:57:00;;;;;;;21.97;11.33;;;;;;;;;;5049746;28;20236;-82
2022/12/23 13:59:36;;;;;;;22.90;13.43;;;;;;;;;;5039687;28;20687;-83
2022/12/23 14:02:01;;;;;;;21.53;13.63;;;;;;;;;;5038651;28;20189;-83
2022/12/23 14:04:33;;;;;;;23.63;13.50;;;;;;;;;;5031834;28;20269;-83
2022/12/23 14:07:03;;;;;;;21.97;12.77;;;;;;;;;;5031530;28;20190;-83
2022/12/23 14:09:35;;;;;;;22.10;12.57;;;;;;;;;;5033602;28;20669;-83
2022/12/23 14:12:09;;;;;;;20.87;12.87;;;;;;;;;;5033716;28;20200;-83
2022/12/23 14:14:36;;;;;;;20.23;13.00;;;;;;;;;;5035317;28;20186;-83
2022/12/23 14:17:15;;;;;;;17.10;10.77;;;;;;;;;;5035407;28;20178;-83
2022/12/23 14:19:46;;;;;;;26.55;12.35;;;;;;;;;;5034959;28;20301;-82
2022/12/23 14:22:11;;;;;;;18.43;11.00;;;;;;;;;;5037523;28;20622;-83
2022/12/23 14:24:55;;;;;;;20.47;12.93;;;;;;;;;;5037230;28;20201;-84
2022/12/23 14:27:33;;;;;;;18.87;12.23;;;;;;;;;;5038226;28;20174;-83
2022/12/23 14:30:19;;;;;;;17.10;10.05;;;;;;;;;;5038351;28;20293;-83
2022/12/23 14:32:46;;;;;;;17.77;10.43;;;;;;;;;;5026361;28;20186;-84
2022/12/23 14:35:47;;;;;;;18.23;10.18;;;;;;;;;;5033333;28;20182;-83
2022/12/23 14:38:12;;;;;;;20.67;10.83;;;;;;;;;;5032777;28;20273;-83
2022/12/23 14:40:37;;;;;;;19.03;11.37;;;;;;;;;;5031594;28;20211;-83
2022/12/23 14:43:26;;;;;;;18.30;10.70;;;;;;;;;;5033808;28;20683;-83
2022/12/23 14:45:52;;;;;;;19.93;11.47;;;;;;;;;;5029824;28;20227;-83
2022/12/23 14:48:33;;;;;;;20.80;12.67;;;;;;;;;;5036857;28;20189;-83
2022/12/23 14:51:02;;;;;;;21.53;11.43;;;;;;;;;;5033926;28;20220;-83
2022/12/23 14:53:29;;;;;;;15.77;10.77;;;;;;;;;;5049358;28;20174;-82